Time;durP1;ratioP1;P1;durP2;ratioP2;P2;SDS_P1;SDS_P2;PMS_P1;PMS_P2;Temp;Humidity;BMP_temperature;BMP_pressure;BME280_temperature;BME280_humidity;BME280_pressure;Samples;Min_cycle;Max_cycle;Signal;HPM_P1;HPM_P2
2022/05/01 00:00:48;;;;;;;21.33;13.63;;;;;;;6.11;81.75;100014.31;4992455;28;20104;-53
2022/05/01 00:03:30;;;;;;;24.50;13.25;;;;;;;5.96;82.67;100003.75;4991892;28;20030;-51
2022/05/01 00:05:59;;;;;;;23.98;12.40;;;;;;;6.05;82.87;100004.44;4995492;28;20053;-52
2022/05/01 00:08:25;;;;;;;23.88;13.73;;;;;;;6.01;83.14;100004.00;4994211;28;20481;-51
2022/05/01 00:10:50;;;;;;;23.50;13.75;;;;;;;6.06;84.50;100006.09;4993459;28;20057;-53
2022/05/01 00:13:16;;;;;;;25.50;13.70;;;;;;;6.00;83.00;100001.56;4989466;28;20034;-52
2022/05/01 00:15:42;;;;;;;22.55;13.05;;;;;;;6.06;82.85;100006.09;4990339;28;20066;-50
2022/05/01 00:18:07;;;;;;;19.70;12.88;;;;;;;5.92;82.31;99999.84;4994071;28;20030;-51
2022/05/01 00:20:33;;;;;;;21.42;12.52;;;;;;;5.72;83.07;100001.50;4994209;28;20058;-50
2022/05/01 00:22:58;;;;;;;23.73;13.25;;;;;;;5.62;83.82;99996.50;5001770;28;20030;-51
2022/05/01 00:25:24;;;;;;;24.63;13.43;;;;;;;5.54;87.96;99996.63;4988762;28;20050;-52
2022/05/01 00:27:49;;;;;;;29.77;14.48;;;;;;;5.57;85.98;100001.59;4988664;28;20056;-51
2022/05/01 00:30:14;;;;;;;25.80;13.55;;;;;;;5.60;84.80;99995.88;4993458;28;20029;-52
2022/05/01 00:38:08;;;;;;;23.30;13.48;;;;;;;5.83;83.59;99980.50;4996475;28;20084;-53
2022/05/01 00:40:34;;;;;;;25.30;14.02;;;;;;;5.90;83.63;99991.22;4993700;28;20046;-54
2022/05/01 00:43:03;;;;;;;29.98;14.38;;;;;;;5.98;83.71;99993.75;4989006;28;20053;-53
2022/05/01 00:45:29;;;;;;;24.70;13.25;;;;;;;5.93;83.67;99987.34;4988427;28;20505;-51
2022/05/01 00:47:54;;;;;;;22.67;13.20;;;;;;;5.76;82.54;99990.28;4995908;28;20027;-51
2022/05/01 00:50:20;;;;;;;23.20;13.13;;;;;;;5.63;83.32;99995.50;4995983;28;20123;-53
2022/05/01 00:52:46;;;;;;;21.88;13.45;;;;;;;5.54;84.25;99996.63;4993783;28;20084;-54
2022/05/01 00:55:12;;;;;;;28.60;13.48;;;;;;;5.52;85.93;99990.69;4994038;28;20045;-53
2022/05/01 00:57:37;;;;;;;31.67;15.35;;;;;;;5.75;86.99;99993.97;4990035;28;20034;-51
2022/05/01 01:00:04;;;;;;;31.98;14.65;;;;;;;5.57;83.91;99997.09;4993565;28;20392;-53
2022/05/01 01:02:31;;;;;;;23.52;13.25;;;;;;;5.45;84.82;99993.28;4995230;28;20168;-51
2022/05/01 01:04:56;;;;;;;30.10;14.80;;;;;;;5.53;86.81;99995.00;4992420;28;20039;-52
2022/05/01 01:07:21;;;;;;;24.77;14.80;;;;;;;5.39;86.84;99986.91;4995573;28;20643;-50
2022/05/01 01:09:47;;;;;;;27.60;14.98;;;;;;;5.54;87.09;99986.84;4986803;28;20035;-53
2022/05/01 01:15:09;;;;;;;25.38;14.60;;;;;;;5.21;86.02;99985.69;4994152;28;20033;-50
2022/05/01 01:17:40;;;;;;;24.35;14.70;;;;;;;5.25;86.02;99987.78;4987756;28;20030;-50
2022/05/01 01:20:11;;;;;;;30.00;15.77;;;;;;;5.25;85.55;99993.09;4989467;28;20173;-53
2022/05/01 01:22:37;;;;;;;;;;;;;;;5.60;88.99;99995.88;4993048;28;20022;-50
2022/05/01 01:25:03;;;;;;;29.52;15.85;;;;;;;5.50;85.67;99992.72;5023770;28;19922;-50
2022/05/01 01:27:28;;;;;;;27.10;14.02;;;;;;;5.51;87.35;99989.03;4989989;28;20033;-52
2022/05/01 01:32:39;;;;;;;28.63;15.10;;;;;;;5.52;86.09;99998.69;4991996;28;20062;-51
2022/05/01 01:35:05;;;;;;;29.75;16.08;;;;;;;5.41;85.50;99995.50;4986337;28;20042;-53
2022/05/01 01:37:32;;;;;;;28.70;15.30;;;;;;;5.55;85.00;100001.75;4974811;28;20026;-51
2022/05/01 01:39:58;;;;;;;27.02;15.82;;;;;;;5.80;83.39;100002.19;4988157;28;20994;-52
2022/05/01 01:42:23;;;;;;;26.75;14.93;;;;;;;5.94;83.19;100003.16;4972992;28;20046;-50
2022/05/01 01:44:49;;;;;;;28.42;15.07;;;;;;;5.88;83.11;100006.53;4985991;28;20369;-50
2022/05/01 01:47:14;;;;;;;32.58;16.48;;;;;;;5.97;83.03;99997.44;5000059;28;20528;-51
2022/05/01 01:49:40;;;;;;;26.38;16.23;;;;;;;5.99;83.17;99999.88;5000859;28;20427;-53
2022/05/01 01:52:05;;;;;;;30.83;15.75;;;;;;;5.83;83.14;99996.47;4991191;28;20042;-53
2022/05/01 01:54:31;;;;;;;26.92;15.63;;;;;;;5.84;83.81;99998.13;4987813;28;20053;-51
2022/05/01 01:56:56;;;;;;;30.92;17.15;;;;;;;5.81;83.92;99997.69;5001543;28;20388;-53
2022/05/01 01:59:22;;;;;;;30.60;16.42;;;;;;;5.81;83.96;100009.13;4986897;28;20562;-53
2022/05/01 02:01:48;;;;;;;31.95;16.67;;;;;;;5.83;83.98;100001.78;4991579;28;20737;-50
2022/05/01 02:04:13;;;;;;;30.25;17.08;;;;;;;5.97;83.94;99999.28;4985928;28;20030;-54
2022/05/01 02:06:39;;;;;;;35.88;17.08;;;;;;;5.96;83.16;99997.63;4991017;28;20042;-53
2022/05/01 02:09:06;;;;;;;30.67;16.45;;;;;;;5.97;83.26;100001.94;4991972;28;20475;-52
2022/05/01 02:11:33;;;;;;;32.40;16.75;;;;;;;6.08;83.74;99997.91;4992169;28;20117;-50
2022/05/01 02:13:59;;;;;;;31.27;16.23;;;;;;;6.12;84.33;99994.69;4994624;28;20030;-52
2022/05/01 02:16:25;;;;;;;34.95;16.65;;;;;;;6.17;83.27;100002.91;4986850;28;20038;-54
2022/05/01 02:18:51;;;;;;;31.33;17.35;;;;;;;6.25;84.67;99994.75;4989151;28;20424;-52
2022/05/01 02:21:35;;;;;;;31.40;16.55;;;;;;;6.30;83.38;99996.03;4991047;28;20042;-52
2022/05/01 02:24:02;;;;;;;32.72;16.23;;;;;;;6.17;82.74;99991.44;4995446;28;20136;-51
2022/05/01 02:26:27;;;;;;;29.45;16.05;;;;;;;6.11;83.39;99987.69;4992972;28;20046;-52
2022/05/01 02:28:54;;;;;;;30.40;16.38;;;;;;;6.11;83.59;99993.00;4990438;28;20033;-54
2022/05/01 02:31:20;;;;;;;30.45;16.63;;;;;;;6.31;87.16;99987.00;4986711;28;20136;-52
2022/05/01 02:33:45;;;;;;;30.25;17.73;;;;;;;6.21;83.78;99982.84;4992098;28;20041;-52
2022/05/01 02:36:11;;;;;;;33.72;17.50;;;;;;;6.10;84.14;99979.94;4999693;28;20076;-53
2022/05/01 02:38:36;;;;;;;35.92;17.38;;;;;;;6.14;84.55;99986.47;4994462;28;20044;-53
2022/05/01 02:41:02;;;;;;;33.92;17.45;;;;;;;6.07;83.89;99981.13;4990277;28;20513;-53
2022/05/01 02:43:28;;;;;;;30.80;16.42;;;;;;;6.18;84.17;99980.56;4992298;28;20369;-52
2022/05/01 02:45:54;;;;;;;32.30;17.73;;;;;;;6.15;83.54;99982.81;4990323;28;20532;-51
2022/05/01 02:48:19;;;;;;;34.00;17.73;;;;;;;6.20;82.74;99980.41;4998533;28;20421;-54
2022/05/01 02:50:44;;;;;;;32.38;17.38;;;;;;;6.19;83.56;99978.72;4991043;28;20046;-50
2022/05/01 02:53:10;;;;;;;34.22;17.13;;;;;;;6.12;83.91;99972.56;4991451;28;20436;-50
2022/05/01 02:55:35;;;;;;;42.17;20.23;;;;;;;6.07;84.25;99970.50;4991575;28;20116;-50
2022/05/01 02:58:02;;;;;;;34.40;18.23;;;;;;;6.14;83.92;99975.84;4991172;28;20029;-51
2022/05/01 03:00:27;;;;;;;33.13;18.23;;;;;;;6.17;83.61;99970.97;4991593;28;20046;-52
2022/05/01 03:02:55;;;;;;;33.05;18.02;;;;;;;6.16;83.77;99969.31;4989041;28;20056;-54
2022/05/01 03:05:21;;;;;;;32.13;17.83;;;;;;;6.21;84.18;99972.19;4986360;28;20061;-54
2022/05/01 03:07:48;;;;;;;36.05;17.98;;;;;;;6.20;83.37;99970.56;4993150;28;20404;-51
2022/05/01 03:10:13;;;;;;;32.67;17.52;;;;;;;6.19;83.93;99974.25;4984431;28;20342;-50
2022/05/01 03:12:39;;;;;;;41.03;17.85;;;;;;;6.20;83.96;99964.44;4985273;28;20322;-51
2022/05/01 03:15:08;;;;;;;36.63;18.67;;;;;;;6.17;84.02;99965.63;4985305;28;20038;-50
2022/05/01 03:23:02;;;;;;;37.00;17.30;;;;;;;6.09;85.21;99967.63;4994864;28;20033;-51
2022/05/01 03:25:28;;;;;;;34.78;18.42;;;;;;;6.11;85.32;99963.75;4994048;28;20038;-54
2022/05/01 03:27:54;;;;;;;35.08;19.00;;;;;;;6.09;85.36;99956.97;4993089;28;20033;-54
2022/05/01 03:30:20;;;;;;;34.25;18.85;;;;;;;6.09;85.70;99962.28;4990500;28;20034;-53
2022/05/01 03:32:45;;;;;;;35.63;19.27;;;;;;;6.11;85.56;99953.09;4992156;28;20540;-50
2022/05/01 03:35:12;;;;;;;36.30;19.10;;;;;;;6.09;85.58;99951.66;4997280;28;20026;-52
2022/05/01 03:37:37;;;;;;;31.15;17.70;;;;;;;6.06;85.43;99960.84;5001871;28;20685;-55
2022/05/01 03:40:03;;;;;;;36.65;18.75;;;;;;;6.09;85.17;99963.13;4992806;28;20084;-51
2022/05/01 03:42:29;;;;;;;37.45;19.15;;;;;;;6.10;85.19;99959.44;4994841;28;20477;-52
2022/05/01 03:44:55;;;;;;;44.17;19.73;;;;;;;6.15;85.39;99961.53;4990225;28;20018;-54
2022/05/01 03:47:20;;;;;;;37.50;21.13;;;;;;;6.20;85.39;99972.41;4975154;28;20148;-53
2022/05/01 03:49:46;;;;;;;38.45;20.60;;;;;;;6.13;85.80;99964.38;4996067;28;20450;-53
2022/05/01 03:52:11;;;;;;;40.17;20.58;;;;;;;6.13;85.87;99964.38;4992560;28;20115;-52
2022/05/01 03:54:37;;;;;;;39.55;20.17;;;;;;;6.10;85.66;99967.44;4993642;28;20022;-52
2022/05/01 03:57:02;;;;;;;43.42;21.70;;;;;;;6.02;85.98;99963.09;5001089;28;20050;-54
2022/05/01 03:59:29;;;;;;;35.88;19.08;;;;;;;5.98;86.29;99961.81;4994472;28;20034;-53
2022/05/01 04:01:55;;;;;;;38.20;20.40;;;;;;;6.00;86.50;99962.44;4990113;28;20481;-53
2022/05/01 04:04:21;;;;;;;40.85;20.38;;;;;;;5.96;86.50;99963.03;4989310;28;20037;-53
2022/05/01 04:06:46;;;;;;;37.50;19.63;;;;;;;5.96;86.85;99963.03;4995751;28;20053;-52
2022/05/01 04:09:14;;;;;;;37.80;20.20;;;;;;;5.94;87.01;99962.41;4989421;28;20480;-52
2022/05/01 04:11:40;;;;;;;38.08;19.25;;;;;;;5.91;87.27;99965.41;4993854;28;20046;-52
2022/05/01 04:14:06;;;;;;;42.33;21.20;;;;;;;5.91;87.03;99965.41;4994557;28;20035;-53
2022/05/01 04:16:32;;;;;;;42.55;19.95;;;;;;;5.91;86.87;99965.41;4996873;28;20257;-51
2022/05/01 04:18:57;;;;;;;45.90;20.85;;;;;;;5.89;86.87;99968.28;4989337;28;20469;-54
2022/05/01 04:21:23;;;;;;;41.13;22.10;;;;;;;5.92;86.92;99972.41;4989258;28;20093;-53
2022/05/01 04:23:49;;;;;;;43.38;21.38;;;;;;;5.92;86.94;99972.41;4995482;28;20528;-53
2022/05/01 04:26:14;;;;;;;35.17;21.08;;;;;;;5.95;86.80;99972.03;4992909;28;20046;-51
2022/05/01 04:29:36;;;;;;;44.42;21.05;;;;;;;5.91;86.83;99965.41;4989064;28;20030;-51
2022/05/01 04:31:26;;;;;;;46.10;21.27;;;;;;;5.92;87.08;99972.41;4989418;28;20426;-54
2022/05/01 04:33:51;;;;;;;41.38;20.40;;;;;;;5.97;86.88;99965.50;4994380;28;20022;-50
2022/05/01 04:36:17;;;;;;;41.38;21.38;;;;;;;5.93;87.05;99974.03;4998027;28;20488;-53
2022/05/01 04:38:42;;;;;;;45.53;20.88;;;;;;;5.96;87.04;99963.03;4989124;28;20038;-53
2022/05/01 04:41:07;;;;;;;44.25;20.95;;;;;;;5.99;87.13;99967.97;4989631;28;20833;-52
2022/05/01 04:43:35;;;;;;;36.15;20.38;;;;;;;5.94;87.17;99965.06;4991149;28;20030;-54
2022/05/01 04:46:01;;;;;;;43.83;20.98;;;;;;;5.95;87.24;99967.53;4987887;28;20220;-53
2022/05/01 04:48:26;;;;;;;41.58;20.52;;;;;;;5.96;87.05;99963.03;4996741;28;20017;-53
2022/05/01 04:50:52;;;;;;;46.03;20.98;;;;;;;5.98;86.86;99961.00;4995350;28;20053;-53
2022/05/01 04:53:19;;;;;;;42.92;20.88;;;;;;;5.98;87.35;99956.50;4993438;28;20436;-51
2022/05/01 04:55:46;;;;;;;38.50;20.65;;;;;;;6.01;87.39;99960.59;4991539;28;20049;-50
2022/05/01 04:58:12;;;;;;;41.13;20.40;;;;;;;6.12;87.25;99952.09;4992969;28;20045;-52
2022/05/01 05:00:38;;;;;;;42.85;22.13;;;;;;;6.11;86.67;99949.63;4993678;28;20065;-53
2022/05/01 05:03:03;;;;;;;38.63;20.25;;;;;;;6.14;86.43;99954.53;4987771;28;20089;-52
2022/05/01 05:05:31;;;;;;;42.42;20.95;;;;;;;6.16;86.47;99956.00;4993588;28;20044;-51
2022/05/01 05:09:53;;;;;;;47.72;22.10;;;;;;;6.20;86.68;99959.09;4990345;28;20413;-50
2022/05/01 05:10:42;;;;;;;43.85;20.70;;;;;;;6.14;86.36;99966.03;4993809;28;20408;-51
2022/05/01 05:13:08;;;;;;;45.95;20.73;;;;;;;6.24;85.91;99961.19;4991090;28;20064;-52
2022/05/01 05:15:34;;;;;;;39.63;20.45;;;;;;;6.29;85.66;99963.25;4987364;28;20438;-53
2022/05/01 05:17:59;;;;;;;48.17;20.38;;;;;;;6.33;85.72;99953.84;4992197;28;20088;-52
2022/05/01 05:20:25;;;;;;;41.22;20.88;;;;;;;6.39;85.72;99954.88;4981495;28;20042;-50
2022/05/01 05:22:50;;;;;;;40.88;21.02;;;;;;;6.48;85.50;99961.69;4992211;28;20030;-54
2022/05/01 05:25:19;;;;;;;37.97;21.08;;;;;;;6.44;85.68;99960.44;4988129;28;20022;-53
2022/05/01 05:27:45;;;;;;;40.65;20.58;;;;;;;6.44;85.63;99957.78;4988780;28;20030;-50
2022/05/01 05:30:11;;;;;;;41.60;21.67;;;;;;;6.55;85.75;99957.22;4994302;28;20708;-52
2022/05/01 05:32:36;;;;;;;43.50;21.48;;;;;;;6.67;85.41;99955.63;4991767;28;20046;-50
2022/05/01 05:35:01;;;;;;;47.67;22.73;;;;;;;6.78;84.72;99954.25;4988817;28;20034;-51
2022/05/01 05:37:27;;;;;;;39.40;20.90;;;;;;;6.81;84.38;99955.69;4992219;28;20448;-50
2022/05/01 05:39:52;;;;;;;40.45;20.52;;;;;;;7.05;83.80;99971.13;4992457;28;20073;-51
2022/05/01 05:42:18;;;;;;;37.55;20.23;;;;;;;7.28;82.75;99962.75;4994752;28;20522;-53
2022/05/01 05:44:43;;;;;;;42.97;20.05;;;;;;;7.64;81.43;99964.25;4997435;28;20480;-52
2022/05/01 05:47:09;;;;;;;45.75;20.90;;;;;;;7.77;80.24;99958.09;5002572;28;20053;-53
2022/05/01 05:49:34;;;;;;;40.05;19.77;;;;;;;8.02;79.30;99960.94;4996202;28;20425;-52
2022/05/01 05:52:00;;;;;;;41.75;20.17;;;;;;;8.78;75.93;99970.19;4986314;28;20050;-51
2022/05/01 05:54:26;;;;;;;36.22;20.35;;;;;;;11.02;68.82;99972.97;4991261;28;20025;-50
2022/05/01 05:56:51;;;;;;;33.20;18.38;;;;;;;13.23;60.95;99976.06;4998560;28;20038;-52
2022/05/01 05:59:16;;;;;;;32.85;18.20;;;;;;;14.14;57.01;99975.97;4986780;28;20144;-53
2022/05/01 06:01:42;;;;;;;35.25;18.05;;;;;;;13.47;57.87;99983.00;4997362;28;20038;-51
2022/05/01 06:04:07;;;;;;;30.75;17.77;;;;;;;15.57;51.67;99988.44;4998924;28;20088;-52
2022/05/01 06:06:34;;;;;;;30.13;16.95;;;;;;;15.62;51.81;99991.19;4991711;28;20485;-53
2022/05/01 06:09:00;;;;;;;26.05;16.33;;;;;;;14.95;52.40;99988.91;4990980;28;20041;-51
2022/05/01 06:11:25;;;;;;;25.90;17.20;;;;;;;14.15;55.18;99988.38;4986462;28;20046;-51
2022/05/01 06:13:51;;;;;;;32.33;17.52;;;;;;;14.05;55.48;99991.72;4985871;28;20445;-52
2022/05/01 06:16:17;;;;;;;28.23;17.98;;;;;;;15.01;52.56;99990.59;4996509;28;20133;-51
2022/05/01 06:18:42;;;;;;;30.15;16.85;;;;;;;14.82;52.52;99999.00;4988567;28;20034;-52
2022/05/01 06:21:08;;;;;;;26.48;16.45;;;;;;;16.17;49.24;99991.91;4997540;28;20725;-50
2022/05/01 06:23:34;;;;;;;25.15;16.42;;;;;;;16.87;46.76;99991.75;4992655;28;20034;-53
2022/05/01 06:26:03;;;;;;;25.95;17.02;;;;;;;17.95;45.12;99987.34;4985964;28;20598;-51
2022/05/01 06:28:29;;;;;;;25.05;16.48;;;;;;;18.31;45.17;99997.03;4986488;28;20037;-53
2022/05/01 06:30:55;;;;;;;23.92;16.23;;;;;;;18.68;44.11;100000.47;4986788;28;20050;-53
2022/05/01 06:33:21;;;;;;;23.73;16.00;;;;;;;16.88;47.48;99994.22;4985595;28;20976;-53
2022/05/01 06:35:53;;;;;;;23.88;15.43;;;;;;;16.63;46.83;99999.50;4989163;28;20157;-53
2022/05/01 06:38:19;;;;;;;23.08;15.25;;;;;;;16.17;48.37;99998.16;4984589;28;20030;-53
2022/05/01 06:40:44;;;;;;;20.95;15.48;;;;;;;17.40;46.21;100004.09;4984213;28;20400;-52
2022/05/01 06:43:13;;;;;;;21.75;15.07;;;;;;;19.04;42.94;100008.47;4987055;28;20034;-53
2022/05/01 06:45:39;;;;;;;22.27;15.77;;;;;;;16.63;47.88;100005.72;4992201;28;20038;-53
2022/05/01 06:48:07;;;;;;;27.38;15.63;;;;;;;16.82;46.88;100006.06;4989273;28;20030;-53
2022/05/01 06:50:32;;;;;;;22.60;14.77;;;;;;;18.18;44.19;100000.31;4994140;28;20555;-51
2022/05/01 06:52:58;;;;;;;21.77;14.95;;;;;;;16.50;47.43;99995.34;4986421;28;20042;-53
2022/05/01 06:55:25;;;;;;;23.40;15.15;;;;;;;17.22;46.11;99996.47;4987929;28;20045;-53
2022/05/01 06:57:52;;;;;;;24.05;14.68;;;;;;;17.11;45.50;99997.53;4986308;28;20030;-53
2022/05/01 07:00:18;;;;;;;23.00;15.50;;;;;;;15.70;49.67;99990.78;4991437;28;20142;-51
2022/05/01 07:02:47;;;;;;;24.02;14.70;;;;;;;16.65;48.36;99991.91;4995758;28;20124;-52
2022/05/01 07:05:12;;;;;;;18.85;14.90;;;;;;;17.08;46.71;99989.94;4992029;28;20062;-52
2022/05/01 07:07:38;;;;;;;23.08;14.73;;;;;;;17.29;45.66;99985.38;4990233;28;20037;-53
2022/05/01 07:10:04;;;;;;;21.45;14.55;;;;;;;17.67;44.94;99990.31;4980606;28;20124;-50
2022/05/01 07:12:30;;;;;;;21.48;14.15;;;;;;;17.40;46.19;99987.84;4991947;28;20425;-54
2022/05/01 07:14:56;;;;;;;18.65;13.70;;;;;;;16.58;46.42;99990.25;4985318;28;20041;-53
2022/05/01 07:17:21;;;;;;;22.20;14.52;;;;;;;14.98;50.75;99996.53;5003917;28;20050;-54
2022/05/01 07:19:46;;;;;;;22.17;14.73;;;;;;;15.78;50.05;99999.50;4981507;28;20033;-51
2022/05/01 07:22:13;;;;;;;22.40;14.98;;;;;;;16.02;48.90;99995.31;4982716;28;20312;-53
2022/05/01 07:24:39;;;;;;;22.33;13.75;;;;;;;16.89;47.06;99990.41;4983718;28;20049;-50
2022/05/01 07:27:05;;;;;;;19.48;14.30;;;;;;;17.60;46.02;99986.22;4980751;28;20436;-53
2022/05/01 07:29:30;;;;;;;22.15;13.45;;;;;;;15.60;49.52;99987.97;4986473;28;20566;-53
2022/05/01 07:31:56;;;;;;;23.13;14.20;;;;;;;15.02;51.56;99993.03;4988634;28;20508;-53
2022/05/01 07:34:22;;;;;;;22.25;13.40;;;;;;;13.71;55.82;99988.25;4984143;28;20147;-52
2022/05/01 07:36:47;;;;;;;23.25;14.75;;;;;;;12.62;60.57;99981.91;4990626;28;20358;-52
2022/05/01 07:39:13;;;;;;;21.70;14.55;;;;;;;12.96;58.99;99971.28;4983660;28;20069;-51
2022/05/01 07:41:38;;;;;;;24.10;14.30;;;;;;;13.11;58.85;99985.03;4987728;28;20056;-53
2022/05/01 07:44:04;;;;;;;23.83;14.00;;;;;;;12.55;60.47;99975.03;4990897;28;20045;-53
2022/05/01 07:46:29;;;;;;;22.13;14.45;;;;;;;12.78;59.96;99980.34;4990663;28;20077;-51
2022/05/01 07:48:54;;;;;;;21.75;15.90;;;;;;;12.69;60.65;99974.53;4991275;28;20033;-52
2022/05/01 07:51:20;;;;;;;22.73;14.98;;;;;;;12.95;59.21;99975.00;4990214;28;20049;-50
2022/05/01 07:53:45;;;;;;;24.90;13.77;;;;;;;11.87;62.13;99980.78;4993326;28;20029;-51
2022/05/01 07:56:11;;;;;;;23.15;14.23;;;;;;;11.92;61.77;99974.72;4983623;28;20331;-53
2022/05/01 07:58:36;;;;;;;21.90;14.73;;;;;;;11.79;62.43;99973.03;4980248;28;20033;-50
2022/05/01 08:01:03;;;;;;;22.48;13.68;;;;;;;12.12;62.64;99974.38;4985914;28;20047;-52
2022/05/01 08:06:13;;;;;;;23.25;14.00;;;;;;;12.32;60.84;99973.19;4985886;28;20060;-50
2022/05/01 08:08:40;;;;;;;20.77;13.73;;;;;;;12.87;59.82;99972.72;4982655;28;20038;-50
2022/05/01 08:11:05;;;;;;;22.23;14.30;;;;;;;11.79;62.28;99978.41;4983638;28;20081;-52
2022/05/01 08:13:31;;;;;;;21.63;13.77;;;;;;;11.27;63.61;99975.50;4985786;28;20026;-51
2022/05/01 08:15:57;;;;;;;23.58;14.05;;;;;;;11.98;63.65;99970.28;4989795;28;20551;-52
2022/05/01 08:21:08;;;;;;;21.85;13.38;;;;;;;12.24;61.36;99975.19;4994255;28;20105;-53
2022/05/01 08:23:40;;;;;;;23.35;13.82;;;;;;;11.84;61.88;99975.84;4997582;28;20064;-50
2022/05/01 08:26:06;;;;;;;22.00;12.60;;;;;;;11.71;62.73;99976.09;4991785;28;20172;-53
2022/05/01 08:28:35;;;;;;;19.80;13.35;;;;;;;12.14;61.16;99979.53;4992801;28;20054;-51
2022/05/01 08:31:01;;;;;;;25.08;13.77;;;;;;;11.27;64.03;99970.13;5001618;28;20038;-54
2022/05/01 08:33:27;;;;;;;27.02;15.27;;;;;;;11.63;63.58;99977.25;4991807;28;20054;-50
2022/05/01 08:35:52;;;;;;;20.77;13.93;;;;;;;11.64;63.47;99970.00;4991415;28;20052;-51
2022/05/01 08:38:18;;;;;;;23.52;13.10;;;;;;;12.31;63.36;99975.06;4993966;28;20098;-51
2022/05/01 08:40:49;;;;;;;23.27;13.65;;;;;;;12.66;62.00;99966.94;4991501;28;20065;-51
2022/05/01 08:43:15;;;;;;;22.58;13.68;;;;;;;13.20;59.34;99971.16;4991861;28;20022;-53
2022/05/01 08:45:52;;;;;;;23.52;13.50;;;;;;;13.16;59.76;99971.66;4991936;28;20309;-50
2022/05/01 08:48:30;;;;;;;22.67;13.23;;;;;;;13.04;59.64;99959.31;4989007;28;20381;-53
2022/05/01 08:50:56;;;;;;;30.48;20.27;;;;;;;13.13;60.41;99971.34;4989164;28;20512;-52
2022/05/01 08:53:22;;;;;;;24.63;15.90;;;;;;;13.23;59.63;99966.13;4991735;28;20038;-51
2022/05/01 08:55:47;;;;;;;32.70;21.10;;;;;;;13.15;59.12;99964.66;4990709;28;20326;-53
2022/05/01 08:58:14;;;;;;;26.52;16.15;;;;;;;13.41;59.37;99970.50;4987095;28;20711;-50
2022/05/01 09:00:39;;;;;;;27.23;17.15;;;;;;;13.86;58.76;99968.81;4993348;28;20035;-52
2022/05/01 09:03:05;;;;;;;26.77;13.80;;;;;;;14.29;57.60;99970.78;4990808;28;20037;-51
2022/05/01 09:05:31;;;;;;;24.88;13.85;;;;;;;13.64;57.93;99974.13;4990074;28;20042;-53
2022/05/01 09:07:56;;;;;;;22.10;17.00;;;;;;;13.63;58.06;99976.00;4991258;28;20525;-50
2022/05/01 09:10:25;;;;;;;25.35;15.57;;;;;;;14.21;56.76;99977.44;4992179;28;20317;-52
2022/05/01 09:12:53;;;;;;;25.77;16.40;;;;;;;14.19;55.86;99967.97;4970594;28;20049;-53
2022/05/01 09:15:33;;;;;;;21.77;13.48;;;;;;;14.36;56.55;99966.03;4990336;28;20026;-53
2022/05/01 09:18:09;;;;;;;20.00;13.10;;;;;;;13.77;57.74;99973.78;4991924;28;20051;-51
2022/05/01 09:20:38;;;;;;;18.38;13.13;;;;;;;13.86;56.65;99964.25;4987695;28;20042;-53
2022/05/01 09:23:05;;;;;;;21.60;13.25;;;;;;;14.41;56.56;99974.19;4991450;28;20571;-53
2022/05/01 09:25:30;;;;;;;18.98;12.88;;;;;;;13.99;56.02;99973.88;5000403;28;20065;-52
2022/05/01 09:27:57;;;;;;;41.65;27.73;;;;;;;14.31;55.18;99968.66;4990409;28;20151;-51
2022/05/01 09:30:33;;;;;;;37.45;22.63;;;;;;;14.59;55.68;99975.00;4991856;28;20066;-50
2022/05/01 09:32:58;;;;;;;24.80;17.02;;;;;;;14.89;54.20;99977.25;4994874;28;20034;-52
2022/05/01 09:35:35;;;;;;;24.50;14.80;;;;;;;15.28;52.89;99969.84;4993589;28;20384;-51
2022/05/01 09:38:21;;;;;;;25.50;15.23;;;;;;;15.72;52.68;99966.19;4988675;28;20404;-53
2022/05/01 09:40:51;;;;;;;23.15;13.25;;;;;;;15.58;51.54;99967.69;4990138;28;20535;-53
2022/05/01 09:43:35;;;;;;;24.35;13.05;;;;;;;15.49;53.14;99972.72;4989091;28;20038;-54
2022/05/01 09:46:12;;;;;;;40.17;25.95;;;;;;;16.57;50.11;99963.44;4990669;28;20253;-53
2022/05/01 09:48:38;;;;;;;27.75;18.10;;;;;;;17.02;48.24;99959.31;4995292;28;20037;-53
2022/05/01 09:51:19;;;;;;;50.00;28.50;;;;;;;17.04;49.20;99965.28;4994793;28;20038;-54
2022/05/01 09:53:45;;;;;;;17.45;12.82;;;;;;;15.65;50.19;99966.38;4991516;28;20444;-51
2022/05/01 09:56:11;;;;;;;38.15;25.65;;;;;;;16.12;49.96;99973.75;4993853;28;20043;-53
2022/05/01 09:58:40;;;;;;;70.50;43.65;;;;;;;16.47;47.41;99980.44;4985677;28;20030;-54
2022/05/01 10:01:15;;;;;;;27.40;16.25;;;;;;;16.86;48.79;99966.59;4994374;28;20046;-53
2022/05/01 10:03:42;;;;;;;21.13;13.75;;;;;;;16.61;48.82;99962.66;4998185;28;20082;-52
2022/05/01 10:06:12;;;;;;;22.23;14.27;;;;;;;15.45;51.23;99967.03;4985921;28;20034;-53
2022/05/01 10:08:38;;;;;;;45.63;32.53;;;;;;;15.56;51.81;99959.81;5001645;28;20022;-53
2022/05/01 10:11:05;;;;;;;30.13;19.17;;;;;;;16.17;51.13;99960.31;4989393;28;20066;-53
2022/05/01 10:13:34;;;;;;;22.15;16.23;;;;;;;16.98;49.36;99952.81;4995763;28;20447;-51
2022/05/01 10:15:59;;;;;;;40.60;27.52;;;;;;;17.93;47.67;99954.25;4991661;28;20053;-53
2022/05/01 10:18:25;;;;;;;18.27;12.13;;;;;;;16.51;48.96;99953.69;4991823;28;20030;-51
2022/05/01 10:20:50;;;;;;;26.80;16.08;;;;;;;15.95;50.14;99955.00;4994000;28;20069;-53
2022/05/01 10:23:16;;;;;;;17.70;12.90;;;;;;;16.58;48.48;99949.66;4987327;28;20045;-53
2022/05/01 10:25:48;;;;;;;19.05;13.00;;;;;;;15.87;50.35;99949.25;4989421;28;20052;-52
2022/05/01 10:28:39;;;;;;;71.57;40.67;;;;;;;16.84;49.29;99949.78;4979891;28;20041;-53
2022/05/01 10:34:21;;;;;;;40.78;30.60;;;;;;;16.96;48.60;99950.38;4991384;28;20129;-51
2022/05/01 10:37:04;;;;;;;19.23;12.77;;;;;;;16.12;48.97;99952.13;4978161;28;20046;-50
2022/05/01 10:39:35;;;;;;;34.13;20.35;;;;;;;16.92;49.62;99943.03;4974344;28;20385;-51
2022/05/01 10:42:00;;;;;;;34.60;19.88;;;;;;;17.43;46.78;99943.13;4993860;28;20046;-53
2022/05/01 10:44:30;;;;;;;22.45;14.10;;;;;;;17.25;46.04;99936.34;4983244;28;20400;-52
2022/05/01 10:47:07;;;;;;;20.33;13.27;;;;;;;15.81;49.35;99934.09;4988775;28;20117;-53
2022/05/01 10:49:36;;;;;;;30.95;18.00;;;;;;;16.83;48.72;99929.22;4998651;28;20026;-50
2022/05/01 10:52:18;;;;;;;28.42;16.77;;;;;;;17.12;48.29;99924.13;4995050;28;20527;-53
2022/05/01 10:54:51;;;;;;;42.30;27.17;;;;;;;17.55;46.04;99918.47;4991165;28;20037;-52
2022/05/01 10:57:17;;;;;;;22.13;12.85;;;;;;;16.54;50.03;99921.50;4993773;28;20104;-53
2022/05/01 11:00:12;;;;;;;21.10;11.98;;;;;;;15.59;49.92;99926.06;4987033;28;20034;-53
2022/05/01 11:02:48;;;;;;;32.10;17.73;;;;;;;16.34;49.51;99914.09;4977956;28;20049;-55
2022/05/01 11:05:42;;;;;;;34.13;19.15;;;;;;;17.45;47.49;99920.09;4988274;28;20370;-53
2022/05/01 11:08:24;;;;;;;48.30;32.03;;;;;;;18.45;44.22;99909.63;4989912;28;20045;-53
2022/05/01 11:10:50;;;;;;;78.38;47.95;;;;;;;19.03;43.50;99906.34;4985990;28;20436;-51
2022/05/01 11:13:16;;;;;;;46.30;31.13;;;;;;;18.05;44.93;99908.66;4989822;28;20029;-51
2022/05/01 11:15:47;;;;;;;24.98;13.73;;;;;;;16.99;47.93;99895.66;4984088;28;20125;-52
2022/05/01 11:18:13;;;;;;;27.00;16.92;;;;;;;16.99;47.07;99900.28;4991575;28;20803;-53
2022/05/01 11:20:38;;;;;;;15.77;10.40;;;;;;;17.17;45.63;99890.81;4985218;28;20125;-53
2022/05/01 11:23:26;;;;;;;16.15;12.18;;;;;;;16.79;46.76;99892.91;4988137;28;20125;-52
2022/05/01 11:25:52;;;;;;;17.48;11.15;;;;;;;17.49;47.01;99897.88;4989935;28;20548;-52
2022/05/01 11:28:42;;;;;;;16.67;11.23;;;;;;;18.56;44.27;99894.91;4976102;28;20088;-51
2022/05/01 11:31:45;;;;;;;17.92;10.57;;;;;;;17.79;45.79;99892.41;4987288;28;20053;-52
2022/05/01 11:34:16;;;;;;;15.35;9.85;;;;;;;16.94;47.89;99887.53;4990382;28;20057;-51
2022/05/01 11:37:03;;;;;;;17.20;10.18;;;;;;;16.86;47.50;99887.25;4995272;28;20100;-50
2022/05/01 11:39:43;;;;;;;14.85;10.00;;;;;;;17.22;46.74;99886.22;4995726;28;20054;-51
2022/05/01 11:42:35;;;;;;;18.45;10.63;;;;;;;15.44;48.77;99880.84;4989478;28;20141;-51
2022/05/01 11:45:01;;;;;;;21.20;10.20;;;;;;;15.65;49.41;99885.31;4992177;28;20418;-53
2022/05/01 11:47:33;;;;;;;15.30;9.80;;;;;;;17.06;47.28;99883.78;4990463;28;20034;-53
2022/05/01 11:49:58;;;;;;;14.45;9.88;;;;;;;17.74;44.95;99883.47;4993303;28;20034;-53